createdAt,value
2022-10-04T00:01:25.135Z,8.99
2022-10-04T00:06:31.589Z,7.82
2022-10-04T00:11:37.800Z,9.00
2022-10-04T00:16:43.954Z,10.02
2022-10-04T00:21:50.256Z,7.99
2022-10-04T00:26:56.393Z,7.19
2022-10-04T00:32:02.627Z,8.61
2022-10-04T00:37:08.830Z,6.16
2022-10-04T00:42:15.212Z,8.16
2022-10-04T00:47:22.012Z,8.64
2022-10-04T00:52:28.341Z,7.96
2022-10-04T00:57:35.200Z,6.29
2022-10-04T01:02:41.395Z,6.09
2022-10-04T01:07:47.584Z,6.63
2022-10-04T01:12:54.246Z,6.59
2022-10-04T01:18:01.944Z,9.09
2022-10-04T01:23:06.084Z,8.63
2022-10-04T01:28:12.209Z,7.50
2022-10-04T01:33:18.901Z,6.40
2022-10-04T01:38:25.098Z,8.00
2022-10-04T01:43:31.278Z,8.08
2022-10-04T01:48:37.387Z,7.36
2022-10-04T01:53:44.023Z,8.17
2022-10-04T01:58:50.124Z,7.59
2022-10-04T02:03:56.341Z,7.57
2022-10-04T02:09:02.415Z,6.82
2022-10-04T02:14:08.617Z,7.28
2022-10-04T02:19:14.742Z,9.19
2022-10-04T02:24:20.902Z,6.14
2022-10-04T02:29:27.082Z,8.44
2022-10-04T02:34:33.255Z,7.89
2022-10-04T02:39:39.487Z,11.49
2022-10-04T02:44:45.716Z,8.42
2022-10-04T02:49:51.971Z,11.30
2022-10-04T02:54:58.467Z,9.05
2022-10-04T03:00:04.605Z,7.15
2022-10-04T03:05:10.796Z,8.74
2022-10-04T03:10:17.005Z,7.70
2022-10-04T03:15:23.192Z,9.72
2022-10-04T03:20:29.589Z,9.92
2022-10-04T03:25:35.781Z,10.91
2022-10-04T03:30:42.025Z,10.15
2022-10-04T03:35:48.301Z,11.35
2022-10-04T03:40:54.491Z,14.79
2022-10-04T03:46:00.754Z,12.95
2022-10-04T03:51:06.969Z,12.48
2022-10-04T03:56:13.124Z,10.06
2022-10-04T04:01:19.278Z,11.50
2022-10-04T04:06:25.721Z,9.51
2022-10-04T04:11:32.263Z,11.25
2022-10-04T04:16:38.463Z,11.24
2022-10-04T04:21:44.880Z,13.14
2022-10-04T04:26:51.822Z,13.87
2022-10-04T04:31:57.962Z,11.94
2022-10-04T04:37:04.472Z,12.58
2022-10-04T04:42:10.575Z,13.58
2022-10-04T04:47:18.251Z,13.42
2022-10-04T04:52:22.605Z,13.22
2022-10-04T04:57:28.949Z,12.39
2022-10-04T05:02:35.270Z,10.07
2022-10-04T05:07:41.252Z,12.62
2022-10-04T05:12:47.385Z,10.76
2022-10-04T05:17:53.717Z,11.37
2022-10-04T05:22:59.961Z,11.24
2022-10-04T05:28:06.185Z,11.90
2022-10-04T05:33:12.235Z,12.36
2022-10-04T05:38:18.420Z,10.98
2022-10-04T05:43:24.838Z,12.38
2022-10-04T05:48:31.122Z,11.82
2022-10-04T05:53:37.317Z,12.18
2022-10-04T05:58:43.587Z,13.26
2022-10-04T06:03:49.670Z,14.63
2022-10-04T06:08:55.807Z,15.79
2022-10-04T06:14:01.998Z,14.52
2022-10-04T06:19:08.293Z,17.64
2022-10-04T06:24:14.486Z,15.59
2022-10-04T06:29:20.760Z,19.17
2022-10-04T06:34:26.976Z,16.23
2022-10-04T06:39:33.169Z,17.82
2022-10-04T06:44:40.663Z,19.07
2022-10-04T06:49:45.066Z,19.07
2022-10-04T06:54:51.148Z,18.64
2022-10-04T06:59:57.335Z,14.58
2022-10-04T07:05:08.426Z,14.36
2022-10-04T07:10:09.356Z,13.75
2022-10-04T07:15:15.422Z,18.51
2022-10-04T07:20:24.621Z,17.23
2022-10-04T07:25:30.771Z,17.38
2022-10-04T07:30:37.084Z,18.00
2022-10-04T07:35:43.120Z,12.93
2022-10-04T07:40:49.292Z,15.61
2022-10-04T07:45:55.369Z,17.22
2022-10-04T07:51:01.568Z,16.71
2022-10-04T07:56:07.649Z,14.34
2022-10-04T08:01:13.836Z,14.98
2022-10-04T08:06:19.886Z,15.39
2022-10-04T08:11:26.036Z,14.00
2022-10-04T08:16:32.268Z,18.07
2022-10-04T08:21:38.468Z,12.42
2022-10-04T08:26:44.905Z,12.12
2022-10-04T08:31:50.228Z,14.23
2022-10-04T08:36:56.267Z,14.14
2022-10-04T08:42:02.507Z,14.70
2022-10-04T08:47:08.738Z,12.21
2022-10-04T08:52:15.003Z,13.35
2022-10-04T08:57:21.147Z,12.22
2022-10-04T09:02:27.428Z,10.54
2022-10-04T09:07:33.546Z,9.02
2022-10-04T09:12:39.730Z,9.87
2022-10-04T09:17:45.814Z,11.32
2022-10-04T09:22:52.154Z,11.85
2022-10-04T09:27:58.759Z,9.35
2022-10-04T09:33:04.909Z,7.61
2022-10-04T09:38:10.998Z,8.31
2022-10-04T09:43:17.170Z,10.11
2022-10-04T09:48:23.296Z,6.83
2022-10-04T09:53:29.535Z,6.76
2022-10-04T09:58:35.639Z,6.47
2022-10-04T10:03:41.841Z,9.94
2022-10-04T10:08:48.215Z,7.47
2022-10-04T10:13:54.373Z,7.56
2022-10-04T10:19:00.486Z,6.82
2022-10-04T10:24:06.667Z,8.95
2022-10-04T10:29:12.742Z,7.74
2022-10-04T10:34:18.875Z,8.62
2022-10-04T10:39:24.952Z,10.22
2022-10-04T10:44:31.119Z,6.68
2022-10-04T10:49:37.191Z,8.79
2022-10-04T10:54:43.360Z,8.18
2022-10-04T10:59:49.453Z,7.80
2022-10-04T11:04:55.651Z,8.66
2022-10-04T11:10:01.723Z,8.27
2022-10-04T11:15:07.988Z,9.61
2022-10-04T11:20:14.065Z,8.28
2022-10-04T11:25:20.230Z,8.51
2022-10-04T11:30:26.345Z,7.47
2022-10-04T11:35:32.571Z,7.82
2022-10-04T11:40:38.960Z,5.75
2022-10-04T11:45:45.131Z,5.37
2022-10-04T11:50:51.195Z,6.64
2022-10-04T11:55:57.409Z,6.26
2022-10-04T12:01:03.648Z,7.32
2022-10-04T12:06:09.802Z,7.44
2022-10-04T12:11:16.227Z,8.05
2022-10-04T12:16:22.846Z,5.20
2022-10-04T12:21:31.395Z,6.57
2022-10-04T12:26:37.797Z,6.88
2022-10-04T12:31:43.900Z,6.85
2022-10-04T12:36:50.249Z,5.51
2022-10-04T12:41:56.946Z,6.93
2022-10-04T12:47:02.277Z,7.43
2022-10-04T12:52:08.372Z,7.36
2022-10-04T12:57:15.351Z,8.80
2022-10-04T13:02:21.481Z,6.50
2022-10-04T13:07:28.222Z,5.86
2022-10-04T13:12:34.308Z,5.65
2022-10-04T13:17:40.572Z,6.57
2022-10-04T13:22:56.580Z,5.99
2022-10-04T13:27:52.620Z,8.03
2022-10-04T13:32:58.632Z,7.29
2022-10-04T13:38:04.816Z,6.37
2022-10-04T13:43:10.879Z,5.25
2022-10-04T13:48:21.622Z,5.02
2022-10-04T13:53:23.005Z,7.24
2022-10-04T13:58:29.480Z,6.44
2022-10-04T14:03:35.962Z,4.60
2022-10-04T14:08:42.503Z,4.69
2022-10-04T14:13:48.593Z,6.66
2022-10-04T14:18:54.845Z,6.08
2022-10-04T14:24:00.959Z,4.25
2022-10-04T14:29:07.260Z,6.95
2022-10-04T14:34:13.345Z,7.03
2022-10-04T14:39:19.558Z,7.11
2022-10-04T14:44:25.659Z,7.54
2022-10-04T14:49:31.898Z,6.32
2022-10-04T14:59:40.407Z,5.55
2022-10-04T15:04:46.557Z,5.78
2022-10-04T15:09:52.780Z,5.38
2022-10-04T15:14:58.974Z,6.43
2022-10-04T15:20:05.196Z,6.42
2022-10-04T15:25:11.332Z,7.67
2022-10-04T15:30:17.470Z,4.96
2022-10-04T15:35:23.587Z,4.79
2022-10-04T15:40:30.124Z,6.02
2022-10-04T15:45:36.345Z,6.66
2022-10-04T15:50:54.182Z,5.35
2022-10-04T15:55:53.104Z,5.39
2022-10-04T16:00:59.496Z,6.58
2022-10-04T16:06:05.728Z,4.10
2022-10-04T16:11:12.319Z,5.54
2022-10-04T16:16:18.499Z,6.38
2022-10-04T16:21:24.980Z,4.98
2022-10-04T16:26:31.248Z,6.92
2022-10-04T16:31:37.465Z,5.57
2022-10-04T16:36:43.972Z,6.64
2022-10-04T16:41:49.372Z,6.01
2022-10-04T16:47:01.734Z,8.04
2022-10-04T16:51:57.906Z,7.62
2022-10-04T16:57:03.995Z,7.03
2022-10-04T17:02:10.315Z,8.21
2022-10-04T17:07:17.216Z,8.29
2022-10-04T17:12:23.520Z,6.23
2022-10-04T17:17:30.415Z,7.91
2022-10-04T17:22:39.857Z,7.31
2022-10-04T17:27:45.992Z,8.01
2022-10-04T17:32:53.070Z,9.74
2022-10-04T17:37:59.481Z,7.75
2022-10-04T17:43:04.730Z,9.59
2022-10-04T17:48:10.831Z,9.92
2022-10-04T17:53:17.310Z,8.71
2022-10-04T17:58:28.659Z,10.67
2022-10-04T18:03:24.889Z,10.31
2022-10-04T18:08:31.042Z,11.77
2022-10-04T18:13:37.300Z,11.37
2022-10-04T18:18:43.566Z,9.28
2022-10-04T18:23:50.242Z,10.46
2022-10-04T18:28:56.359Z,10.99
2022-10-04T18:34:02.641Z,9.54
2022-10-04T18:39:09.160Z,11.63
2022-10-04T18:44:15.355Z,12.64
2022-10-04T18:49:21.475Z,11.65
2022-10-04T18:54:28.204Z,11.76
2022-10-04T18:59:34.308Z,10.55
2022-10-04T19:04:40.686Z,11.01
2022-10-04T19:09:50.104Z,11.75
2022-10-04T19:14:56.945Z,13.53
2022-10-04T19:20:03.117Z,10.28
2022-10-04T19:25:10.033Z,10.69
2022-10-04T19:30:16.558Z,11.92
2022-10-04T19:35:22.868Z,10.19
2022-10-04T19:40:29.001Z,11.45
2022-10-04T19:45:35.627Z,10.17
2022-10-04T19:50:41.757Z,12.91
2022-10-04T19:55:47.991Z,11.46
2022-10-04T20:00:54.588Z,15.27
2022-10-04T20:06:01.091Z,11.48
2022-10-04T20:11:07.151Z,14.23
2022-10-04T20:16:14.743Z,12.87
2022-10-04T20:21:25.593Z,12.53
2022-10-04T20:26:27.046Z,9.95
2022-10-04T20:31:33.763Z,13.13
2022-10-04T20:36:40.013Z,12.64
2022-10-04T20:41:46.616Z,9.54
2022-10-04T20:46:52.819Z,11.73
2022-10-04T20:51:58.906Z,9.41
2022-10-04T20:57:05.491Z,10.50
2022-10-04T21:02:11.822Z,12.79
2022-10-04T21:07:18.091Z,10.58
2022-10-04T21:12:24.215Z,12.50
2022-10-04T21:17:30.775Z,10.47
2022-10-04T21:22:36.900Z,11.77
2022-10-04T21:27:43.490Z,13.04
2022-10-04T21:32:49.586Z,11.68
2022-10-04T21:37:55.847Z,11.95
2022-10-04T21:43:01.913Z,9.68
2022-10-04T21:48:08.584Z,11.04
2022-10-04T21:53:14.750Z,9.78
2022-10-04T21:58:22.040Z,10.64
2022-10-04T22:03:28.101Z,11.08
2022-10-04T22:08:34.658Z,11.78
2022-10-04T22:13:40.763Z,9.99
2022-10-04T22:18:47.387Z,11.74
2022-10-04T22:23:53.482Z,8.74
2022-10-04T22:28:59.714Z,10.74
2022-10-04T22:34:05.949Z,10.69
2022-10-04T22:39:12.613Z,8.90
2022-10-04T22:44:18.985Z,9.83
2022-10-04T22:49:25.181Z,11.12
2022-10-04T22:54:31.260Z,9.38
2022-10-04T22:59:37.577Z,9.82
2022-10-04T23:04:43.653Z,10.96
2022-10-04T23:09:49.859Z,9.44
2022-10-04T23:14:55.938Z,9.28
2022-10-04T23:20:02.214Z,10.13
2022-10-04T23:25:09.121Z,9.20
2022-10-04T23:30:15.762Z,10.97
2022-10-04T23:35:21.818Z,9.04
2022-10-04T23:40:28.111Z,10.32
2022-10-04T23:45:36.247Z,9.27
2022-10-04T23:50:40.933Z,8.72
2022-10-04T23:55:47.304Z,12.09
